sensor_id;sensor_type;location;lat;lon;timestamp;temperature;humidity
52531;DHT22;38441;52.894;6.040;2023-07-09T14:31:57;29.10;97.50
52531;DHT22;38441;52.894;6.040;2023-07-09T14:36:59;28.60;99.20
52531;DHT22;38441;52.894;6.040;2023-07-09T14:39:28;30.40;99.90
52531;DHT22;38441;52.894;6.040;2023-07-09T14:41:57;28.30;99.90
52531;DHT22;38441;52.894;6.040;2023-07-09T14:44:28;27.70;99.90
52531;DHT22;38441;52.894;6.040;2023-07-09T14:46:58;26.00;99.90
52531;DHT22;38441;52.894;6.040;2023-07-09T14:49:25;27.90;99.90
52531;DHT22;38441;52.894;6.040;2023-07-09T14:51:52;26.80;99.90
52531;DHT22;38441;52.894;6.040;2023-07-09T14:54:20;24.70;99.90
52531;DHT22;38441;52.894;6.040;2023-07-09T14:56:53;25.20;99.90
52531;DHT22;38441;52.894;6.040;2023-07-09T14:59:22;24.20;99.90
52531;DHT22;38441;52.894;6.040;2023-07-09T15:01:48;23.50;99.90
52531;DHT22;38441;52.894;6.040;2023-07-09T15:04:28;24.70;99.90
52531;DHT22;38441;52.894;6.040;2023-07-09T15:06:56;24.80;99.90
52531;DHT22;38441;52.894;6.040;2023-07-09T15:09:24;24.60;99.90
52531;DHT22;38441;52.894;6.040;2023-07-09T15:11:55;25.40;99.90
52531;DHT22;38441;52.894;6.040;2023-07-09T15:14:20;22.60;99.90
52531;DHT22;38441;52.894;6.040;2023-07-09T15:16:49;24.60;99.90
52531;DHT22;38441;52.894;6.040;2023-07-09T15:19:20;24.80;99.90
52531;DHT22;38441;52.894;6.040;2023-07-09T15:21:52;24.50;99.90
52531;DHT22;38441;52.894;6.040;2023-07-09T15:24:36;25.50;99.90
52531;DHT22;38441;52.894;6.040;2023-07-09T15:27:02;24.00;99.90
52531;DHT22;38441;52.894;6.040;2023-07-09T15:29:51;22.70;99.90
52531;DHT22;38441;52.894;6.040;2023-07-09T15:32:16;24.10;99.90
52531;DHT22;38441;52.894;6.040;2023-07-09T15:38:42;24.20;99.90
52531;DHT22;38441;52.894;6.040;2023-07-09T15:41:16;23.30;99.90
52531;DHT22;38441;52.894;6.040;2023-07-09T15:53:49;24.10;99.90
52531;DHT22;38441;52.894;6.040;2023-07-09T15:56:29;24.00;99.90
52531;DHT22;38441;52.894;6.040;2023-07-09T16:24:31;22.00;99.90
52531;DHT22;38441;52.894;6.040;2023-07-09T17:08:26;21.20;99.90
52531;DHT22;38441;52.894;6.040;2023-07-09T17:10:57;23.10;99.90
52531;DHT22;38441;52.894;6.040;2023-07-09T17:13:33;22.20;99.90
52531;DHT22;38441;52.894;6.040;2023-07-09T17:19:21;21.80;99.90
52531;DHT22;38441;52.894;6.040;2023-07-09T17:21:47;22.70;99.90
52531;DHT22;38441;52.894;6.040;2023-07-09T17:24:43;21.00;99.90
52531;DHT22;38441;52.894;6.040;2023-07-09T17:27:29;23.40;99.90
52531;DHT22;38441;52.894;6.040;2023-07-09T17:30:32;21.10;99.90
52531;DHT22;38441;52.894;6.040;2023-07-09T21:23:34;20.10;99.90
52531;DHT22;38441;52.894;6.040;2023-07-09T21:26:03;21.10;99.90
52531;DHT22;38441;52.894;6.040;2023-07-09T21:28:28;20.20;99.90
52531;DHT22;38441;52.894;6.040;2023-07-09T21:30:54;21.70;99.90
52531;DHT22;38441;52.894;6.040;2023-07-09T21:33:27;21.10;99.90
52531;DHT22;38441;52.894;6.040;2023-07-09T21:35:54;18.10;99.90
52531;DHT22;38441;52.894;6.040;2023-07-09T21:38:23;22.30;99.90
52531;DHT22;38441;52.894;6.040;2023-07-09T21:40:50;21.20;99.90
52531;DHT22;38441;52.894;6.040;2023-07-09T21:43:16;21.70;99.90
52531;DHT22;38441;52.894;6.040;2023-07-09T21:45:43;19.30;99.90
52531;DHT22;38441;52.894;6.040;2023-07-09T21:48:16;19.00;99.90
52531;DHT22;38441;52.894;6.040;2023-07-09T21:50:44;21.00;99.90
52531;DHT22;38441;52.894;6.040;2023-07-09T21:53:26;20.30;99.90
52531;DHT22;38441;52.894;6.040;2023-07-09T21:55:54;21.30;99.90
52531;DHT22;38441;52.894;6.040;2023-07-09T21:58:19;19.10;99.90
52531;DHT22;38441;52.894;6.040;2023-07-09T22:00:45;22.00;99.90
52531;DHT22;38441;52.894;6.040;2023-07-09T22:03:13;20.00;99.90
52531;DHT22;38441;52.894;6.040;2023-07-09T22:05:40;21.50;99.90
52531;DHT22;38441;52.894;6.040;2023-07-09T22:08:16;20.80;99.90
52531;DHT22;38441;52.894;6.040;2023-07-09T22:10:43;20.60;99.90
52531;DHT22;38441;52.894;6.040;2023-07-09T22:13:12;20.10;99.90
52531;DHT22;38441;52.894;6.040;2023-07-09T22:15:39;22.60;99.90
52531;DHT22;38441;52.894;6.040;2023-07-09T22:18:05;20.80;99.90
52531;DHT22;38441;52.894;6.040;2023-07-09T22:20:32;21.30;99.90
52531;DHT22;38441;52.894;6.040;2023-07-09T22:22:58;20.70;99.90
52531;DHT22;38441;52.894;6.040;2023-07-09T22:25:26;21.80;99.90
52531;DHT22;38441;52.894;6.040;2023-07-09T22:27:53;20.90;99.90
52531;DHT22;38441;52.894;6.040;2023-07-09T22:30:21;20.50;99.90
52531;DHT22;38441;52.894;6.040;2023-07-09T22:32:52;20.80;99.90
52531;DHT22;38441;52.894;6.040;2023-07-09T22:35:19;20.90;99.90
52531;DHT22;38441;52.894;6.040;2023-07-09T22:37:47;21.40;99.90
52531;DHT22;38441;52.894;6.040;2023-07-09T22:40:27;21.70;99.90
52531;DHT22;38441;52.894;6.040;2023-07-09T22:42:55;20.00;99.90
52531;DHT22;38441;52.894;6.040;2023-07-09T22:45:25;21.70;99.90
52531;DHT22;38441;52.894;6.040;2023-07-09T22:47:55;21.20;99.90
52531;DHT22;38441;52.894;6.040;2023-07-09T22:50:30;19.90;99.90
52531;DHT22;38441;52.894;6.040;2023-07-09T22:52:57;19.70;99.90
52531;DHT22;38441;52.894;6.040;2023-07-09T22:55:31;21.20;99.90
52531;DHT22;38441;52.894;6.040;2023-07-09T22:57:58;19.40;99.90
52531;DHT22;38441;52.894;6.040;2023-07-09T23:00:25;20.70;99.90
52531;DHT22;38441;52.894;6.040;2023-07-09T23:02:51;18.70;99.90
52531;DHT22;38441;52.894;6.040;2023-07-09T23:05:17;19.70;99.90
52531;DHT22;38441;52.894;6.040;2023-07-09T23:07:42;19.50;99.90
52531;DHT22;38441;52.894;6.040;2023-07-09T23:10:08;20.70;99.90
52531;DHT22;38441;52.894;6.040;2023-07-09T23:12:36;19.60;99.90
52531;DHT22;38441;52.894;6.040;2023-07-09T23:15:21;20.10;99.90
52531;DHT22;38441;52.894;6.040;2023-07-09T23:17:50;19.20;99.90
52531;DHT22;38441;52.894;6.040;2023-07-09T23:20:16;21.70;99.90
52531;DHT22;38441;52.894;6.040;2023-07-09T23:22:42;19.60;99.90
52531;DHT22;38441;52.894;6.040;2023-07-09T23:25:12;21.20;99.90
52531;DHT22;38441;52.894;6.040;2023-07-09T23:27:39;19.90;99.90
52531;DHT22;38441;52.894;6.040;2023-07-09T23:32:39;20.60;99.90
52531;DHT22;38441;52.894;6.040;2023-07-09T23:35:24;21.30;99.90
52531;DHT22;38441;52.894;6.040;2023-07-09T23:37:50;19.40;99.90
52531;DHT22;38441;52.894;6.040;2023-07-09T23:40:19;19.10;99.90
52531;DHT22;38441;52.894;6.040;2023-07-09T23:42:48;21.80;99.90
52531;DHT22;38441;52.894;6.040;2023-07-09T23:45:22;20.30;99.90
52531;DHT22;38441;52.894;6.040;2023-07-09T23:47:54;18.30;99.90
52531;DHT22;38441;52.894;6.040;2023-07-09T23:50:22;21.30;99.90
52531;DHT22;38441;52.894;6.040;2023-07-09T23:52:51;20.30;99.90
52531;DHT22;38441;52.894;6.040;2023-07-09T23:55:18;23.40;99.90
52531;DHT22;38441;52.894;6.040;2023-07-09T23:57:50;19.50;99.90
